sensor_id;sensor_type;location;lat;lon;timestamp;P1;durP1;ratioP1;P2;durP2;ratioP2
76814;SDS011;65768;49.906;19.384;2023-02-21T00:00:54;4.20;;;1.50;;
76814;SDS011;65768;49.906;19.384;2023-02-21T00:03:41;3.30;;;1.50;;
76814;SDS011;65768;49.906;19.384;2023-02-21T00:06:28;5.90;;;1.40;;
76814;SDS011;65768;49.906;19.384;2023-02-21T00:09:14;3.90;;;1.70;;
76814;SDS011;65768;49.906;19.384;2023-02-21T00:12:01;4.50;;;1.80;;
76814;SDS011;65768;49.906;19.384;2023-02-21T00:14:48;2.00;;;0.90;;
76814;SDS011;65768;49.906;19.384;2023-02-21T00:17:34;4.10;;;1.30;;
76814;SDS011;65768;49.906;19.384;2023-02-21T00:20:21;3.40;;;1.60;;
76814;SDS011;65768;49.906;19.384;2023-02-21T00:23:08;3.10;;;1.60;;
76814;SDS011;65768;49.906;19.384;2023-02-21T00:25:55;4.90;;;2.00;;
76814;SDS011;65768;49.906;19.384;2023-02-21T00:28:41;3.00;;;1.40;;
76814;SDS011;65768;49.906;19.384;2023-02-21T00:31:28;4.10;;;1.30;;
76814;SDS011;65768;49.906;19.384;2023-02-21T00:34:14;4.20;;;1.70;;
76814;SDS011;65768;49.906;19.384;2023-02-21T00:37:01;2.10;;;1.00;;
76814;SDS011;65768;49.906;19.384;2023-02-21T00:39:48;3.20;;;1.30;;
76814;SDS011;65768;49.906;19.384;2023-02-21T00:42:35;3.20;;;1.10;;
76814;SDS011;65768;49.906;19.384;2023-02-21T00:45:21;3.70;;;1.30;;
76814;SDS011;65768;49.906;19.384;2023-02-21T00:48:08;5.50;;;1.30;;
76814;SDS011;65768;49.906;19.384;2023-02-21T00:50:54;3.70;;;1.50;;
76814;SDS011;65768;49.906;19.384;2023-02-21T00:53:41;5.20;;;1.80;;
76814;SDS011;65768;49.906;19.384;2023-02-21T00:56:27;3.00;;;1.40;;
76814;SDS011;65768;49.906;19.384;2023-02-21T00:59:14;2.30;;;1.30;;
76814;SDS011;65768;49.906;19.384;2023-02-21T01:02:00;5.20;;;1.60;;
76814;SDS011;65768;49.906;19.384;2023-02-21T01:04:47;5.80;;;1.50;;
76814;SDS011;65768;49.906;19.384;2023-02-21T01:07:34;4.40;;;1.60;;
76814;SDS011;65768;49.906;19.384;2023-02-21T01:10:20;3.60;;;1.30;;
76814;SDS011;65768;49.906;19.384;2023-02-21T01:13:07;2.50;;;1.20;;
76814;SDS011;65768;49.906;19.384;2023-02-21T01:15:54;2.00;;;1.10;;
76814;SDS011;65768;49.906;19.384;2023-02-21T01:18:41;4.10;;;1.30;;
76814;SDS011;65768;49.906;19.384;2023-02-21T01:21:28;1.70;;;0.80;;
76814;SDS011;65768;49.906;19.384;2023-02-21T01:24:14;2.00;;;1.10;;
76814;SDS011;65768;49.906;19.384;2023-02-21T01:27:01;6.30;;;1.60;;
76814;SDS011;65768;49.906;19.384;2023-02-21T01:29:48;4.10;;;1.40;;
76814;SDS011;65768;49.906;19.384;2023-02-21T01:32:35;2.90;;;1.40;;
76814;SDS011;65768;49.906;19.384;2023-02-21T01:35:21;6.10;;;1.60;;
76814;SDS011;65768;49.906;19.384;2023-02-21T01:38:08;2.90;;;1.00;;
76814;SDS011;65768;49.906;19.384;2023-02-21T01:40:55;2.60;;;1.10;;
76814;SDS011;65768;49.906;19.384;2023-02-21T01:43:58;3.70;;;1.50;;
76814;SDS011;65768;49.906;19.384;2023-02-21T01:46:47;2.80;;;1.50;;
76814;SDS011;65768;49.906;19.384;2023-02-21T01:49:34;5.10;;;1.50;;
76814;SDS011;65768;49.906;19.384;2023-02-21T01:52:24;3.80;;;1.60;;
76814;SDS011;65768;49.906;19.384;2023-02-21T01:55:12;2.30;;;1.20;;
76814;SDS011;65768;49.906;19.384;2023-02-21T01:57:58;2.50;;;1.30;;
76814;SDS011;65768;49.906;19.384;2023-02-21T02:00:45;2.30;;;1.30;;
76814;SDS011;65768;49.906;19.384;2023-02-21T02:03:32;2.10;;;1.20;;
76814;SDS011;65768;49.906;19.384;2023-02-21T02:06:20;3.50;;;1.50;;
76814;SDS011;65768;49.906;19.384;2023-02-21T02:09:19;2.60;;;1.20;;
76814;SDS011;65768;49.906;19.384;2023-02-21T02:36:49;2.60;;;1.20;;
76814;SDS011;65768;49.906;19.384;2023-02-21T02:39:23;3.10;;;1.70;;
76814;SDS011;65768;49.906;19.384;2023-02-21T02:41:59;4.20;;;1.60;;
76814;SDS011;65768;49.906;19.384;2023-02-21T02:44:38;3.50;;;1.10;;
76814;SDS011;65768;49.906;19.384;2023-02-21T02:47:11;5.30;;;1.50;;
76814;SDS011;65768;49.906;19.384;2023-02-21T02:49:45;4.80;;;1.50;;
76814;SDS011;65768;49.906;19.384;2023-02-21T02:52:14;4.30;;;1.60;;
76814;SDS011;65768;49.906;19.384;2023-02-21T02:54:42;4.20;;;1.40;;
76814;SDS011;65768;49.906;19.384;2023-02-21T02:57:10;3.40;;;1.60;;
76814;SDS011;65768;49.906;19.384;2023-02-21T02:59:40;2.70;;;1.50;;
76814;SDS011;65768;49.906;19.384;2023-02-21T03:10:22;2.90;;;1.10;;
76814;SDS011;65768;49.906;19.384;2023-02-21T03:13:11;7.30;;;1.80;;
76814;SDS011;65768;49.906;19.384;2023-02-21T03:16:22;2.70;;;1.10;;
76814;SDS011;65768;49.906;19.384;2023-02-21T03:19:25;2.80;;;1.30;;
76814;SDS011;65768;49.906;19.384;2023-02-21T03:22:02;3.10;;;1.40;;
76814;SDS011;65768;49.906;19.384;2023-02-21T03:24:34;4.40;;;1.30;;
76814;SDS011;65768;49.906;19.384;2023-02-21T03:27:06;3.60;;;1.50;;
76814;SDS011;65768;49.906;19.384;2023-02-21T03:29:36;2.00;;;1.20;;
76814;SDS011;65768;49.906;19.384;2023-02-21T03:32:07;2.70;;;1.50;;
76814;SDS011;65768;49.906;19.384;2023-02-21T03:34:40;3.00;;;1.50;;
76814;SDS011;65768;49.906;19.384;2023-02-21T03:37:20;4.50;;;1.30;;
76814;SDS011;65768;49.906;19.384;2023-02-21T03:39:56;4.50;;;2.00;;
76814;SDS011;65768;49.906;19.384;2023-02-21T03:42:24;3.00;;;1.60;;
76814;SDS011;65768;49.906;19.384;2023-02-21T03:44:52;2.90;;;1.00;;
76814;SDS011;65768;49.906;19.384;2023-02-21T03:47:21;3.00;;;1.20;;
76814;SDS011;65768;49.906;19.384;2023-02-21T03:49:48;2.60;;;1.10;;
76814;SDS011;65768;49.906;19.384;2023-02-21T03:52:16;4.50;;;1.90;;
76814;SDS011;65768;49.906;19.384;2023-02-21T03:54:44;5.60;;;2.00;;
76814;SDS011;65768;49.906;19.384;2023-02-21T03:57:13;5.80;;;1.80;;
76814;SDS011;65768;49.906;19.384;2023-02-21T03:59:41;5.10;;;1.80;;
76814;SDS011;65768;49.906;19.384;2023-02-21T04:02:09;3.80;;;2.10;;
76814;SDS011;65768;49.906;19.384;2023-02-21T04:04:37;2.90;;;1.40;;
76814;SDS011;65768;49.906;19.384;2023-02-21T04:07:05;4.40;;;1.50;;
76814;SDS011;65768;49.906;19.384;2023-02-21T04:09:33;7.30;;;1.80;;
76814;SDS011;65768;49.906;19.384;2023-02-21T04:12:01;3.20;;;1.60;;
76814;SDS011;65768;49.906;19.384;2023-02-21T04:14:29;4.00;;;1.80;;
76814;SDS011;65768;49.906;19.384;2023-02-21T04:16:57;4.10;;;1.30;;
76814;SDS011;65768;49.906;19.384;2023-02-21T04:19:25;3.00;;;1.40;;
76814;SDS011;65768;49.906;19.384;2023-02-21T04:21:53;2.50;;;1.20;;
76814;SDS011;65768;49.906;19.384;2023-02-21T04:24:21;2.80;;;1.50;;
76814;SDS011;65768;49.906;19.384;2023-02-21T04:26:49;1.90;;;0.90;;
76814;SDS011;65768;49.906;19.384;2023-02-21T04:29:17;3.40;;;1.60;;
76814;SDS011;65768;49.906;19.384;2023-02-21T04:31:46;3.00;;;1.70;;
76814;SDS011;65768;49.906;19.384;2023-02-21T04:34:14;2.30;;;1.30;;
76814;SDS011;65768;49.906;19.384;2023-02-21T04:36:42;2.90;;;1.20;;
76814;SDS011;65768;49.906;19.384;2023-02-21T04:39:11;5.00;;;2.30;;
76814;SDS011;65768;49.906;19.384;2023-02-21T04:41:39;5.30;;;1.90;;
76814;SDS011;65768;49.906;19.384;2023-02-21T04:44:07;3.80;;;1.90;;
76814;SDS011;65768;49.906;19.384;2023-02-21T04:46:35;3.90;;;2.10;;
76814;SDS011;65768;49.906;19.384;2023-02-21T04:49:03;4.00;;;1.90;;
76814;SDS011;65768;49.906;19.384;2023-02-21T04:51:31;4.30;;;1.80;;
76814;SDS011;65768;49.906;19.384;2023-02-21T04:53:59;5.10;;;1.50;;
76814;SDS011;65768;49.906;19.384;2023-02-21T04:56:27;6.60;;;2.20;;
76814;SDS011;65768;49.906;19.384;2023-02-21T04:58:55;4.60;;;1.80;;
76814;SDS011;65768;49.906;19.384;2023-02-21T05:01:27;3.00;;;1.60;;
76814;SDS011;65768;49.906;19.384;2023-02-21T05:03:58;4.30;;;2.00;;
76814;SDS011;65768;49.906;19.384;2023-02-21T05:06:27;4.40;;;1.30;;
76814;SDS011;65768;49.906;19.384;2023-02-21T05:08:56;4.70;;;2.00;;
76814;SDS011;65768;49.906;19.384;2023-02-21T05:11:25;3.50;;;1.80;;
76814;SDS011;65768;49.906;19.384;2023-02-21T05:13:53;3.80;;;2.00;;
76814;SDS011;65768;49.906;19.384;2023-02-21T05:16:21;4.50;;;2.00;;
76814;SDS011;65768;49.906;19.384;2023-02-21T05:18:49;2.40;;;1.60;;
76814;SDS011;65768;49.906;19.384;2023-02-21T05:21:18;3.80;;;1.50;;
76814;SDS011;65768;49.906;19.384;2023-02-21T05:23:46;3.30;;;1.30;;
76814;SDS011;65768;49.906;19.384;2023-02-21T05:26:24;4.80;;;1.70;;
76814;SDS011;65768;49.906;19.384;2023-02-21T05:28:56;3.60;;;1.10;;
76814;SDS011;65768;49.906;19.384;2023-02-21T05:31:24;2.80;;;1.70;;
76814;SDS011;65768;49.906;19.384;2023-02-21T05:33:53;2.50;;;1.30;;
76814;SDS011;65768;49.906;19.384;2023-02-21T05:36:21;4.40;;;1.90;;
76814;SDS011;65768;49.906;19.384;2023-02-21T05:38:52;4.80;;;1.50;;
76814;SDS011;65768;49.906;19.384;2023-02-21T05:41:22;4.90;;;2.10;;
76814;SDS011;65768;49.906;19.384;2023-02-21T05:43:51;3.20;;;1.60;;
76814;SDS011;65768;49.906;19.384;2023-02-21T05:46:21;3.80;;;1.50;;
76814;SDS011;65768;49.906;19.384;2023-02-21T05:48:52;4.00;;;2.20;;
76814;SDS011;65768;49.906;19.384;2023-02-21T05:51:20;4.60;;;1.80;;
76814;SDS011;65768;49.906;19.384;2023-02-21T05:53:49;2.90;;;1.80;;
76814;SDS011;65768;49.906;19.384;2023-02-21T05:56:17;3.90;;;1.80;;
76814;SDS011;65768;49.906;19.384;2023-02-21T05:58:47;4.70;;;2.00;;
76814;SDS011;65768;49.906;19.384;2023-02-21T06:01:15;4.40;;;2.00;;
76814;SDS011;65768;49.906;19.384;2023-02-21T06:03:43;3.50;;;2.00;;
76814;SDS011;65768;49.906;19.384;2023-02-21T06:06:13;4.60;;;1.40;;
76814;SDS011;65768;49.906;19.384;2023-02-21T06:08:45;3.80;;;1.70;;
76814;SDS011;65768;49.906;19.384;2023-02-21T06:11:15;5.80;;;2.20;;
76814;SDS011;65768;49.906;19.384;2023-02-21T06:13:50;4.50;;;1.80;;
76814;SDS011;65768;49.906;19.384;2023-02-21T06:16:19;2.70;;;1.60;;
76814;SDS011;65768;49.906;19.384;2023-02-21T06:18:51;5.70;;;2.70;;
76814;SDS011;65768;49.906;19.384;2023-02-21T06:21:20;4.40;;;2.10;;
76814;SDS011;65768;49.906;19.384;2023-02-21T06:23:49;4.90;;;2.40;;
76814;SDS011;65768;49.906;19.384;2023-02-21T06:26:18;5.90;;;2.30;;
76814;SDS011;65768;49.906;19.384;2023-02-21T06:28:47;5.80;;;2.00;;
76814;SDS011;65768;49.906;19.384;2023-02-21T06:31:16;3.40;;;1.90;;
76814;SDS011;65768;49.906;19.384;2023-02-21T06:33:45;4.90;;;2.30;;
76814;SDS011;65768;49.906;19.384;2023-02-21T06:36:17;6.10;;;2.20;;
76814;SDS011;65768;49.906;19.384;2023-02-21T06:38:48;3.20;;;1.70;;
76814;SDS011;65768;49.906;19.384;2023-02-21T06:41:19;4.70;;;1.90;;
76814;SDS011;65768;49.906;19.384;2023-02-21T06:43:53;3.10;;;1.80;;
76814;SDS011;65768;49.906;19.384;2023-02-21T06:46:24;4.20;;;2.10;;
76814;SDS011;65768;49.906;19.384;2023-02-21T06:48:54;4.10;;;2.10;;
76814;SDS011;65768;49.906;19.384;2023-02-21T06:51:22;5.70;;;2.20;;
76814;SDS011;65768;49.906;19.384;2023-02-21T06:53:56;5.10;;;2.40;;
76814;SDS011;65768;49.906;19.384;2023-02-21T06:56:25;6.30;;;2.40;;
76814;SDS011;65768;49.906;19.384;2023-02-21T06:58:53;9.50;;;2.50;;
76814;SDS011;65768;49.906;19.384;2023-02-21T07:01:23;5.90;;;3.10;;
76814;SDS011;65768;49.906;19.384;2023-02-21T07:03:53;6.00;;;2.10;;
76814;SDS011;65768;49.906;19.384;2023-02-21T07:06:23;4.40;;;2.20;;
76814;SDS011;65768;49.906;19.384;2023-02-21T07:08:51;3.20;;;1.80;;
76814;SDS011;65768;49.906;19.384;2023-02-21T07:11:19;3.30;;;2.00;;
76814;SDS011;65768;49.906;19.384;2023-02-21T07:13:51;5.70;;;2.50;;
76814;SDS011;65768;49.906;19.384;2023-02-21T07:16:21;4.50;;;2.10;;
76814;SDS011;65768;49.906;19.384;2023-02-21T07:18:49;5.30;;;2.20;;
76814;SDS011;65768;49.906;19.384;2023-02-21T07:21:17;4.90;;;1.80;;
76814;SDS011;65768;49.906;19.384;2023-02-21T07:23:47;5.90;;;3.10;;
76814;SDS011;65768;49.906;19.384;2023-02-21T07:26:16;5.90;;;2.30;;
76814;SDS011;65768;49.906;19.384;2023-02-21T07:28:46;2.10;;;1.60;;
76814;SDS011;65768;49.906;19.384;2023-02-21T07:31:15;5.80;;;2.80;;
76814;SDS011;65768;49.906;19.384;2023-02-21T07:33:44;3.60;;;2.40;;
76814;SDS011;65768;49.906;19.384;2023-02-21T07:36:12;3.10;;;1.80;;
76814;SDS011;65768;49.906;19.384;2023-02-21T07:38:40;4.30;;;2.20;;
76814;SDS011;65768;49.906;19.384;2023-02-21T07:41:08;3.70;;;2.40;;
76814;SDS011;65768;49.906;19.384;2023-02-21T07:43:36;3.20;;;2.40;;
76814;SDS011;65768;49.906;19.384;2023-02-21T07:46:09;6.00;;;2.30;;
76814;SDS011;65768;49.906;19.384;2023-02-21T07:48:38;4.40;;;3.20;;
76814;SDS011;65768;49.906;19.384;2023-02-21T07:51:07;6.40;;;2.80;;
76814;SDS011;65768;49.906;19.384;2023-02-21T07:53:36;10.90;;;3.50;;
76814;SDS011;65768;49.906;19.384;2023-02-21T07:56:04;7.30;;;4.20;;
76814;SDS011;65768;49.906;19.384;2023-02-21T07:58:32;5.70;;;3.50;;
76814;SDS011;65768;49.906;19.384;2023-02-21T08:01:04;9.10;;;3.60;;
76814;SDS011;65768;49.906;19.384;2023-02-21T08:03:33;5.10;;;2.90;;
76814;SDS011;65768;49.906;19.384;2023-02-21T08:06:02;5.80;;;3.10;;
76814;SDS011;65768;49.906;19.384;2023-02-21T08:08:30;4.90;;;3.40;;
76814;SDS011;65768;49.906;19.384;2023-02-21T08:10:59;5.20;;;3.00;;
76814;SDS011;65768;49.906;19.384;2023-02-21T08:13:27;7.20;;;3.90;;
76814;SDS011;65768;49.906;19.384;2023-02-21T08:15:55;6.50;;;3.10;;
76814;SDS011;65768;49.906;19.384;2023-02-21T08:18:23;6.40;;;3.40;;
76814;SDS011;65768;49.906;19.384;2023-02-21T08:20:53;6.70;;;3.80;;
76814;SDS011;65768;49.906;19.384;2023-02-21T08:23:22;7.20;;;3.90;;
76814;SDS011;65768;49.906;19.384;2023-02-21T08:25:51;5.50;;;3.00;;
76814;SDS011;65768;49.906;19.384;2023-02-21T08:28:19;7.50;;;4.40;;
76814;SDS011;65768;49.906;19.384;2023-02-21T08:30:47;6.20;;;3.50;;
76814;SDS011;65768;49.906;19.384;2023-02-21T08:33:15;6.40;;;3.80;;
76814;SDS011;65768;49.906;19.384;2023-02-21T08:35:43;6.20;;;3.10;;
76814;SDS011;65768;49.906;19.384;2023-02-21T08:38:11;6.30;;;2.80;;
76814;SDS011;65768;49.906;19.384;2023-02-21T08:40:39;6.80;;;3.70;;
76814;SDS011;65768;49.906;19.384;2023-02-21T08:43:07;5.70;;;3.00;;
76814;SDS011;65768;49.906;19.384;2023-02-21T08:45:35;4.40;;;2.60;;
76814;SDS011;65768;49.906;19.384;2023-02-21T08:48:04;4.50;;;2.70;;
76814;SDS011;65768;49.906;19.384;2023-02-21T08:50:32;9.20;;;3.80;;
76814;SDS011;65768;49.906;19.384;2023-02-21T08:53:00;7.20;;;3.50;;
76814;SDS011;65768;49.906;19.384;2023-02-21T08:55:28;4.60;;;2.60;;
76814;SDS011;65768;49.906;19.384;2023-02-21T08:57:57;7.30;;;3.30;;
76814;SDS011;65768;49.906;19.384;2023-02-21T09:00:25;8.30;;;3.90;;
76814;SDS011;65768;49.906;19.384;2023-02-21T09:02:55;5.10;;;3.50;;
76814;SDS011;65768;49.906;19.384;2023-02-21T09:05:26;6.10;;;4.30;;
76814;SDS011;65768;49.906;19.384;2023-02-21T09:07:56;4.90;;;3.20;;
76814;SDS011;65768;49.906;19.384;2023-02-21T09:10:27;7.00;;;4.40;;
76814;SDS011;65768;49.906;19.384;2023-02-21T09:12:57;8.00;;;3.40;;
76814;SDS011;65768;49.906;19.384;2023-02-21T09:15:25;6.10;;;3.80;;
76814;SDS011;65768;49.906;19.384;2023-02-21T09:17:53;8.10;;;3.90;;
76814;SDS011;65768;49.906;19.384;2023-02-21T09:20:23;8.00;;;3.70;;
76814;SDS011;65768;49.906;19.384;2023-02-21T09:22:53;5.30;;;3.60;;
76814;SDS011;65768;49.906;19.384;2023-02-21T09:25:22;7.00;;;4.00;;
76814;SDS011;65768;49.906;19.384;2023-02-21T09:27:51;9.60;;;3.00;;
76814;SDS011;65768;49.906;19.384;2023-02-21T09:30:21;8.60;;;3.20;;
76814;SDS011;65768;49.906;19.384;2023-02-21T09:35:21;6.50;;;3.10;;
76814;SDS011;65768;49.906;19.384;2023-02-21T09:37:49;5.80;;;3.60;;
76814;SDS011;65768;49.906;19.384;2023-02-21T09:43:15;6.40;;;3.60;;
76814;SDS011;65768;49.906;19.384;2023-02-21T09:45:47;6.50;;;3.50;;
76814;SDS011;65768;49.906;19.384;2023-02-21T09:48:19;6.60;;;2.80;;
76814;SDS011;65768;49.906;19.384;2023-02-21T09:50:52;7.50;;;4.10;;
76814;SDS011;65768;49.906;19.384;2023-02-21T09:53:28;6.80;;;3.10;;
76814;SDS011;65768;49.906;19.384;2023-02-21T09:55:59;4.50;;;2.60;;
76814;SDS011;65768;49.906;19.384;2023-02-21T09:58:32;4.60;;;2.40;;
76814;SDS011;65768;49.906;19.384;2023-02-21T10:01:07;6.10;;;2.70;;
76814;SDS011;65768;49.906;19.384;2023-02-21T10:07:10;5.60;;;2.60;;
76814;SDS011;65768;49.906;19.384;2023-02-21T10:15:51;4.30;;;2.20;;
76814;SDS011;65768;49.906;19.384;2023-02-21T10:18:30;4.00;;;2.60;;
76814;SDS011;65768;49.906;19.384;2023-02-21T10:21:03;6.00;;;3.20;;
76814;SDS011;65768;49.906;19.384;2023-02-21T10:23:40;6.30;;;2.60;;
76814;SDS011;65768;49.906;19.384;2023-02-21T10:26:15;2.70;;;2.00;;
76814;SDS011;65768;49.906;19.384;2023-02-21T10:28:49;4.80;;;2.80;;
76814;SDS011;65768;49.906;19.384;2023-02-21T10:31:22;5.40;;;2.90;;
76814;SDS011;65768;49.906;19.384;2023-02-21T10:33:58;5.00;;;2.50;;
76814;SDS011;65768;49.906;19.384;2023-02-21T10:36:29;6.40;;;3.60;;
76814;SDS011;65768;49.906;19.384;2023-02-21T10:39:05;9.90;;;4.10;;
76814;SDS011;65768;49.906;19.384;2023-02-21T10:41:43;7.10;;;3.50;;
76814;SDS011;65768;49.906;19.384;2023-02-21T10:44:19;8.20;;;4.40;;
76814;SDS011;65768;49.906;19.384;2023-02-21T10:46:57;7.40;;;3.80;;
76814;SDS011;65768;49.906;19.384;2023-02-21T10:49:45;10.50;;;4.90;;
76814;SDS011;65768;49.906;19.384;2023-02-21T10:52:57;6.10;;;3.20;;
76814;SDS011;65768;49.906;19.384;2023-02-21T10:55:23;8.00;;;4.00;;
76814;SDS011;65768;49.906;19.384;2023-02-21T10:57:53;6.50;;;4.20;;
76814;SDS011;65768;49.906;19.384;2023-02-21T11:02:55;6.60;;;2.90;;
76814;SDS011;65768;49.906;19.384;2023-02-21T11:05:29;6.00;;;3.00;;
76814;SDS011;65768;49.906;19.384;2023-02-21T11:08:01;6.50;;;3.50;;
76814;SDS011;65768;49.906;19.384;2023-02-21T11:10:36;4.10;;;2.60;;
76814;SDS011;65768;49.906;19.384;2023-02-21T11:13:13;7.60;;;3.00;;
76814;SDS011;65768;49.906;19.384;2023-02-21T11:15:43;6.10;;;3.10;;
76814;SDS011;65768;49.906;19.384;2023-02-21T11:18:13;3.60;;;2.20;;
76814;SDS011;65768;49.906;19.384;2023-02-21T11:20:49;4.60;;;2.60;;
76814;SDS011;65768;49.906;19.384;2023-02-21T11:23:24;5.20;;;2.20;;
76814;SDS011;65768;49.906;19.384;2023-02-21T11:26:12;4.10;;;2.20;;
76814;SDS011;65768;49.906;19.384;2023-02-21T11:28:42;6.40;;;2.70;;
76814;SDS011;65768;49.906;19.384;2023-02-21T11:33:49;5.90;;;2.70;;
76814;SDS011;65768;49.906;19.384;2023-02-21T11:36:25;4.50;;;2.00;;
76814;SDS011;65768;49.906;19.384;2023-02-21T11:39:01;4.70;;;2.30;;
76814;SDS011;65768;49.906;19.384;2023-02-21T11:41:44;3.50;;;2.00;;
76814;SDS011;65768;49.906;19.384;2023-02-21T11:44:21;4.00;;;1.80;;
76814;SDS011;65768;49.906;19.384;2023-02-21T11:52:32;2.70;;;1.30;;
76814;SDS011;65768;49.906;19.384;2023-02-21T11:55:12;3.70;;;1.80;;
76814;SDS011;65768;49.906;19.384;2023-02-21T12:03:15;4.80;;;1.80;;
76814;SDS011;65768;49.906;19.384;2023-02-21T12:06:15;4.10;;;1.20;;
76814;SDS011;65768;49.906;19.384;2023-02-21T12:09:00;6.30;;;2.10;;
76814;SDS011;65768;49.906;19.384;2023-02-21T12:17:11;3.50;;;1.80;;
76814;SDS011;65768;49.906;19.384;2023-02-21T12:22:31;1.30;;;0.60;;
76814;SDS011;65768;49.906;19.384;2023-02-21T12:25:14;4.10;;;1.60;;
76814;SDS011;65768;49.906;19.384;2023-02-21T12:27:51;1.70;;;1.10;;
76814;SDS011;65768;49.906;19.384;2023-02-21T12:33:34;1.50;;;0.70;;
76814;SDS011;65768;49.906;19.384;2023-02-21T12:36:45;4.90;;;1.40;;
76814;SDS011;65768;49.906;19.384;2023-02-21T12:42:27;4.80;;;1.30;;
76814;SDS011;65768;49.906;19.384;2023-02-21T12:45:22;2.50;;;1.50;;
76814;SDS011;65768;49.906;19.384;2023-02-21T12:50:53;3.60;;;1.80;;
76814;SDS011;65768;49.906;19.384;2023-02-21T12:53:27;3.60;;;1.60;;
76814;SDS011;65768;49.906;19.384;2023-02-21T12:56:04;5.30;;;2.00;;
76814;SDS011;65768;49.906;19.384;2023-02-21T13:01:35;4.40;;;2.00;;
76814;SDS011;65768;49.906;19.384;2023-02-21T13:04:30;4.00;;;1.40;;
76814;SDS011;65768;49.906;19.384;2023-02-21T13:07:12;4.50;;;2.00;;
76814;SDS011;65768;49.906;19.384;2023-02-21T13:12:43;3.30;;;1.40;;
76814;SDS011;65768;49.906;19.384;2023-02-21T13:15:20;3.70;;;1.90;;
76814;SDS011;65768;49.906;19.384;2023-02-21T13:23:53;2.90;;;1.50;;
76814;SDS011;65768;49.906;19.384;2023-02-21T13:29:41;3.90;;;0.90;;
76814;SDS011;65768;49.906;19.384;2023-02-21T13:32:14;1.50;;;0.70;;
76814;SDS011;65768;49.906;19.384;2023-02-21T13:34:54;2.80;;;1.60;;
76814;SDS011;65768;49.906;19.384;2023-02-21T13:37:29;3.60;;;1.60;;
76814;SDS011;65768;49.906;19.384;2023-02-21T13:40:15;5.80;;;2.10;;
76814;SDS011;65768;49.906;19.384;2023-02-21T13:43:33;3.80;;;1.90;;
76814;SDS011;65768;49.906;19.384;2023-02-21T13:46:21;8.80;;;3.40;;
76814;SDS011;65768;49.906;19.384;2023-02-21T14:11:24;20.60;;;7.80;;
76814;SDS011;65768;49.906;19.384;2023-02-21T14:14:02;9.70;;;4.10;;
76814;SDS011;65768;49.906;19.384;2023-02-21T14:16:34;3.40;;;2.00;;
76814;SDS011;65768;49.906;19.384;2023-02-21T14:19:32;8.30;;;3.20;;
76814;SDS011;65768;49.906;19.384;2023-02-21T14:22:20;10.80;;;4.60;;
76814;SDS011;65768;49.906;19.384;2023-02-21T14:25:02;5.70;;;2.50;;
76814;SDS011;65768;49.906;19.384;2023-02-21T14:27:45;4.10;;;2.30;;
76814;SDS011;65768;49.906;19.384;2023-02-21T14:30:21;3.90;;;2.20;;
76814;SDS011;65768;49.906;19.384;2023-02-21T14:32:54;4.30;;;2.20;;
76814;SDS011;65768;49.906;19.384;2023-02-21T14:35:38;2.80;;;1.30;;
76814;SDS011;65768;49.906;19.384;2023-02-21T14:38:22;3.40;;;1.70;;
76814;SDS011;65768;49.906;19.384;2023-02-21T14:40:55;5.00;;;2.40;;
76814;SDS011;65768;49.906;19.384;2023-02-21T14:43:31;5.40;;;2.00;;
76814;SDS011;65768;49.906;19.384;2023-02-21T14:52:15;4.60;;;2.20;;
76814;SDS011;65768;49.906;19.384;2023-02-21T15:00:55;5.00;;;2.40;;
76814;SDS011;65768;49.906;19.384;2023-02-21T15:03:36;4.70;;;1.70;;
76814;SDS011;65768;49.906;19.384;2023-02-21T15:06:19;4.80;;;1.60;;
76814;SDS011;65768;49.906;19.384;2023-02-21T15:08:52;3.60;;;1.90;;
76814;SDS011;65768;49.906;19.384;2023-02-21T15:11:34;3.80;;;2.00;;
76814;SDS011;65768;49.906;19.384;2023-02-21T15:14:18;3.10;;;1.20;;
76814;SDS011;65768;49.906;19.384;2023-02-21T15:16:52;2.50;;;1.10;;
76814;SDS011;65768;49.906;19.384;2023-02-21T15:24:56;2.80;;;1.40;;
76814;SDS011;65768;49.906;19.384;2023-02-21T15:27:27;3.50;;;1.70;;
76814;SDS011;65768;49.906;19.384;2023-02-21T15:30:03;4.40;;;1.80;;
76814;SDS011;65768;49.906;19.384;2023-02-21T15:32:34;5.00;;;2.40;;
76814;SDS011;65768;49.906;19.384;2023-02-21T15:35:04;5.10;;;1.90;;
76814;SDS011;65768;49.906;19.384;2023-02-21T15:37:34;6.70;;;2.40;;
76814;SDS011;65768;49.906;19.384;2023-02-21T15:40:06;4.50;;;2.30;;
76814;SDS011;65768;49.906;19.384;2023-02-21T15:42:42;6.90;;;2.80;;
76814;SDS011;65768;49.906;19.384;2023-02-21T15:45:18;5.50;;;2.40;;
76814;SDS011;65768;49.906;19.384;2023-02-21T15:47:51;5.70;;;2.70;;
76814;SDS011;65768;49.906;19.384;2023-02-21T15:52:52;5.90;;;2.50;;
76814;SDS011;65768;49.906;19.384;2023-02-21T15:55:26;5.00;;;2.30;;
76814;SDS011;65768;49.906;19.384;2023-02-21T16:00:34;10.40;;;4.00;;
76814;SDS011;65768;49.906;19.384;2023-02-21T16:08:53;9.40;;;3.20;;
76814;SDS011;65768;49.906;19.384;2023-02-21T16:11:38;7.30;;;3.00;;
76814;SDS011;65768;49.906;19.384;2023-02-21T16:14:42;8.80;;;3.60;;
76814;SDS011;65768;49.906;19.384;2023-02-21T16:20:16;4.90;;;2.20;;
76814;SDS011;65768;49.906;19.384;2023-02-21T16:22:47;6.80;;;2.70;;
76814;SDS011;65768;49.906;19.384;2023-02-21T16:25:19;7.80;;;3.20;;
76814;SDS011;65768;49.906;19.384;2023-02-21T16:32:48;4.80;;;2.30;;
76814;SDS011;65768;49.906;19.384;2023-02-21T16:35:22;6.80;;;2.50;;
76814;SDS011;65768;49.906;19.384;2023-02-21T16:37:53;5.10;;;2.40;;
76814;SDS011;65768;49.906;19.384;2023-02-21T16:40:26;6.70;;;2.30;;
76814;SDS011;65768;49.906;19.384;2023-02-21T16:42:56;4.50;;;2.20;;
76814;SDS011;65768;49.906;19.384;2023-02-21T16:45:25;7.90;;;3.40;;
76814;SDS011;65768;49.906;19.384;2023-02-21T16:47:58;6.10;;;2.50;;
76814;SDS011;65768;49.906;19.384;2023-02-21T16:52:59;6.70;;;3.00;;
76814;SDS011;65768;49.906;19.384;2023-02-21T16:55:29;7.40;;;4.10;;
76814;SDS011;65768;49.906;19.384;2023-02-21T16:57:59;8.60;;;3.90;;
76814;SDS011;65768;49.906;19.384;2023-02-21T17:01:00;6.30;;;3.70;;
76814;SDS011;65768;49.906;19.384;2023-02-21T17:03:31;5.60;;;2.70;;
76814;SDS011;65768;49.906;19.384;2023-02-21T17:06:00;6.90;;;2.80;;
76814;SDS011;65768;49.906;19.384;2023-02-21T17:08:29;8.90;;;4.20;;
76814;SDS011;65768;49.906;19.384;2023-02-21T17:10:57;6.50;;;3.70;;
76814;SDS011;65768;49.906;19.384;2023-02-21T17:13:25;8.90;;;5.00;;
76814;SDS011;65768;49.906;19.384;2023-02-21T17:15:54;6.90;;;4.40;;
76814;SDS011;65768;49.906;19.384;2023-02-21T17:18:22;9.80;;;5.50;;
76814;SDS011;65768;49.906;19.384;2023-02-21T17:20:51;10.70;;;5.40;;
76814;SDS011;65768;49.906;19.384;2023-02-21T17:23:20;14.40;;;5.40;;
76814;SDS011;65768;49.906;19.384;2023-02-21T17:25:48;8.70;;;4.40;;
76814;SDS011;65768;49.906;19.384;2023-02-21T17:28:16;7.10;;;4.60;;
76814;SDS011;65768;49.906;19.384;2023-02-21T17:30:45;8.50;;;4.60;;
76814;SDS011;65768;49.906;19.384;2023-02-21T17:33:14;13.30;;;4.70;;
76814;SDS011;65768;49.906;19.384;2023-02-21T17:35:42;11.50;;;4.80;;
76814;SDS011;65768;49.906;19.384;2023-02-21T17:38:10;7.60;;;3.80;;
76814;SDS011;65768;49.906;19.384;2023-02-21T17:40:39;9.80;;;4.40;;
76814;SDS011;65768;49.906;19.384;2023-02-21T17:43:07;6.90;;;3.50;;
76814;SDS011;65768;49.906;19.384;2023-02-21T17:45:35;8.00;;;3.40;;
76814;SDS011;65768;49.906;19.384;2023-02-21T17:48:03;12.30;;;5.50;;
76814;SDS011;65768;49.906;19.384;2023-02-21T17:50:32;8.90;;;4.00;;
76814;SDS011;65768;49.906;19.384;2023-02-21T17:53:00;10.30;;;3.70;;
76814;SDS011;65768;49.906;19.384;2023-02-21T17:55:29;6.80;;;3.50;;